sensor_id;sensor_type;location;lat;lon;timestamp;P1;durP1;ratioP1;P2;durP2;ratioP2
70320;SDS011;61127;55.826;37.046;2023-12-20T00:01:24;4.03;;;1.17;;
70320;SDS011;61127;55.826;37.046;2023-12-20T00:03:50;3.35;;;1.20;;
70320;SDS011;61127;55.826;37.046;2023-12-20T00:06:15;2.67;;;1.10;;
70320;SDS011;61127;55.826;37.046;2023-12-20T00:08:41;3.15;;;1.20;;
70320;SDS011;61127;55.826;37.046;2023-12-20T00:11:07;4.20;;;1.20;;
70320;SDS011;61127;55.826;37.046;2023-12-20T00:13:33;5.88;;;1.33;;
70320;SDS011;61127;55.826;37.046;2023-12-20T00:15:58;4.10;;;1.00;;
70320;SDS011;61127;55.826;37.046;2023-12-20T00:18:24;12.07;;;2.17;;
70320;SDS011;61127;55.826;37.046;2023-12-20T00:20:50;4.03;;;1.17;;
70320;SDS011;61127;55.826;37.046;2023-12-20T00:23:16;4.75;;;1.30;;
70320;SDS011;61127;55.826;37.046;2023-12-20T00:25:42;2.38;;;1.10;;
70320;SDS011;61127;55.826;37.046;2023-12-20T00:28:07;2.92;;;1.13;;
70320;SDS011;61127;55.826;37.046;2023-12-20T00:30:33;4.93;;;1.15;;
70320;SDS011;61127;55.826;37.046;2023-12-20T00:32:59;4.28;;;1.48;;
70320;SDS011;61127;55.826;37.046;2023-12-20T00:35:24;4.37;;;1.63;;
70320;SDS011;61127;55.826;37.046;2023-12-20T00:37:50;3.28;;;1.45;;
70320;SDS011;61127;55.826;37.046;2023-12-20T00:40:16;4.40;;;1.65;;
70320;SDS011;61127;55.826;37.046;2023-12-20T00:42:42;4.93;;;1.57;;
70320;SDS011;61127;55.826;37.046;2023-12-20T00:45:08;5.82;;;1.67;;
70320;SDS011;61127;55.826;37.046;2023-12-20T00:47:34;6.30;;;2.00;;
70320;SDS011;61127;55.826;37.046;2023-12-20T00:49:59;6.65;;;2.30;;
70320;SDS011;61127;55.826;37.046;2023-12-20T00:52:25;4.53;;;1.95;;
70320;SDS011;61127;55.826;37.046;2023-12-20T00:54:51;4.28;;;1.77;;
70320;SDS011;61127;55.826;37.046;2023-12-20T00:57:17;4.57;;;2.05;;
70320;SDS011;61127;55.826;37.046;2023-12-20T00:59:43;5.57;;;2.20;;
70320;SDS011;61127;55.826;37.046;2023-12-20T01:02:08;5.28;;;2.17;;
70320;SDS011;61127;55.826;37.046;2023-12-20T01:04:35;7.23;;;2.50;;
70320;SDS011;61127;55.826;37.046;2023-12-20T01:07:01;5.15;;;2.25;;
70320;SDS011;61127;55.826;37.046;2023-12-20T01:09:27;7.30;;;2.42;;
70320;SDS011;61127;55.826;37.046;2023-12-20T01:11:53;5.25;;;2.10;;
70320;SDS011;61127;55.826;37.046;2023-12-20T01:14:19;6.83;;;2.00;;
70320;SDS011;61127;55.826;37.046;2023-12-20T01:16:45;5.13;;;2.40;;
70320;SDS011;61127;55.826;37.046;2023-12-20T01:19:10;7.53;;;2.70;;
70320;SDS011;61127;55.826;37.046;2023-12-20T01:21:36;5.13;;;2.13;;
70320;SDS011;61127;55.826;37.046;2023-12-20T01:24:02;5.37;;;2.47;;
70320;SDS011;61127;55.826;37.046;2023-12-20T01:26:28;5.38;;;2.60;;
70320;SDS011;61127;55.826;37.046;2023-12-20T01:28:54;6.85;;;2.60;;
70320;SDS011;61127;55.826;37.046;2023-12-20T01:31:19;6.10;;;2.10;;
70320;SDS011;61127;55.826;37.046;2023-12-20T01:33:45;7.40;;;2.50;;
70320;SDS011;61127;55.826;37.046;2023-12-20T01:36:11;5.23;;;2.30;;
70320;SDS011;61127;55.826;37.046;2023-12-20T01:38:37;8.55;;;2.50;;
70320;SDS011;61127;55.826;37.046;2023-12-20T01:41:03;8.02;;;2.78;;
70320;SDS011;61127;55.826;37.046;2023-12-20T01:43:29;5.40;;;2.50;;
70320;SDS011;61127;55.826;37.046;2023-12-20T01:45:55;5.93;;;2.55;;
70320;SDS011;61127;55.826;37.046;2023-12-20T01:48:22;4.43;;;2.20;;
70320;SDS011;61127;55.826;37.046;2023-12-20T01:50:49;5.88;;;2.30;;
70320;SDS011;61127;55.826;37.046;2023-12-20T01:53:14;5.80;;;2.00;;
70320;SDS011;61127;55.826;37.046;2023-12-20T01:55:41;5.32;;;1.90;;
70320;SDS011;61127;55.826;37.046;2023-12-20T01:58:07;7.10;;;2.17;;
70320;SDS011;61127;55.826;37.046;2023-12-20T02:00:34;6.15;;;2.13;;
70320;SDS011;61127;55.826;37.046;2023-12-20T02:03:01;4.72;;;1.80;;
70320;SDS011;61127;55.826;37.046;2023-12-20T02:05:33;5.10;;;1.87;;
70320;SDS011;61127;55.826;37.046;2023-12-20T02:07:59;3.72;;;1.80;;
70320;SDS011;61127;55.826;37.046;2023-12-20T02:10:25;5.03;;;1.40;;
70320;SDS011;61127;55.826;37.046;2023-12-20T02:12:51;6.88;;;1.73;;
70320;SDS011;61127;55.826;37.046;2023-12-20T02:15:17;3.55;;;1.65;;
70320;SDS011;61127;55.826;37.046;2023-12-20T02:17:43;4.07;;;1.80;;
70320;SDS011;61127;55.826;37.046;2023-12-20T02:20:10;6.45;;;1.67;;
70320;SDS011;61127;55.826;37.046;2023-12-20T02:22:36;3.45;;;1.55;;
70320;SDS011;61127;55.826;37.046;2023-12-20T02:25:02;5.17;;;1.67;;
70320;SDS011;61127;55.826;37.046;2023-12-20T02:27:29;3.75;;;1.50;;
70320;SDS011;61127;55.826;37.046;2023-12-20T02:29:55;3.90;;;1.40;;
70320;SDS011;61127;55.826;37.046;2023-12-20T02:32:21;3.40;;;1.40;;
70320;SDS011;61127;55.826;37.046;2023-12-20T02:34:48;3.17;;;1.35;;
70320;SDS011;61127;55.826;37.046;2023-12-20T02:37:14;3.15;;;1.40;;
70320;SDS011;61127;55.826;37.046;2023-12-20T02:39:40;3.50;;;1.37;;
70320;SDS011;61127;55.826;37.046;2023-12-20T02:42:06;1.38;;;0.93;;
70320;SDS011;61127;55.826;37.046;2023-12-20T02:44:31;4.37;;;1.20;;
70320;SDS011;61127;55.826;37.046;2023-12-20T02:46:57;3.25;;;1.10;;
70320;SDS011;61127;55.826;37.046;2023-12-20T02:49:23;2.65;;;1.23;;
70320;SDS011;61127;55.826;37.046;2023-12-20T02:51:48;3.10;;;1.38;;
70320;SDS011;61127;55.826;37.046;2023-12-20T02:54:14;6.83;;;1.67;;
70320;SDS011;61127;55.826;37.046;2023-12-20T02:56:40;3.20;;;1.40;;
70320;SDS011;61127;55.826;37.046;2023-12-20T02:59:06;3.90;;;1.70;;
70320;SDS011;61127;55.826;37.046;2023-12-20T03:01:34;3.20;;;1.73;;
70320;SDS011;61127;55.826;37.046;2023-12-20T03:04:00;4.72;;;1.80;;
70320;SDS011;61127;55.826;37.046;2023-12-20T03:06:25;4.72;;;1.58;;
70320;SDS011;61127;55.826;37.046;2023-12-20T03:08:51;3.13;;;1.60;;
70320;SDS011;61127;55.826;37.046;2023-12-20T03:11:17;5.25;;;1.63;;
70320;SDS011;61127;55.826;37.046;2023-12-20T03:13:43;4.03;;;1.70;;
70320;SDS011;61127;55.826;37.046;2023-12-20T03:16:09;4.63;;;1.88;;
70320;SDS011;61127;55.826;37.046;2023-12-20T03:18:35;3.22;;;1.38;;
70320;SDS011;61127;55.826;37.046;2023-12-20T03:21:01;6.00;;;1.70;;
70320;SDS011;61127;55.826;37.046;2023-12-20T03:23:27;4.68;;;1.60;;
70320;SDS011;61127;55.826;37.046;2023-12-20T03:25:52;5.20;;;1.63;;
70320;SDS011;61127;55.826;37.046;2023-12-20T03:28:18;4.28;;;2.03;;
70320;SDS011;61127;55.826;37.046;2023-12-20T03:30:44;6.38;;;2.80;;
70320;SDS011;61127;55.826;37.046;2023-12-20T03:33:10;5.88;;;2.53;;
70320;SDS011;61127;55.826;37.046;2023-12-20T03:35:36;8.43;;;2.75;;
70320;SDS011;61127;55.826;37.046;2023-12-20T03:38:02;7.13;;;2.45;;
70320;SDS011;61127;55.826;37.046;2023-12-20T03:40:28;7.47;;;2.60;;
70320;SDS011;61127;55.826;37.046;2023-12-20T03:42:54;4.97;;;2.58;;
70320;SDS011;61127;55.826;37.046;2023-12-20T03:45:19;4.67;;;2.53;;
70320;SDS011;61127;55.826;37.046;2023-12-20T03:47:45;6.97;;;2.58;;
70320;SDS011;61127;55.826;37.046;2023-12-20T03:50:11;7.13;;;2.67;;
70320;SDS011;61127;55.826;37.046;2023-12-20T03:52:37;6.55;;;2.88;;
70320;SDS011;61127;55.826;37.046;2023-12-20T03:55:02;5.87;;;2.60;;
70320;SDS011;61127;55.826;37.046;2023-12-20T03:57:29;5.25;;;2.60;;
70320;SDS011;61127;55.826;37.046;2023-12-20T03:59:55;6.80;;;2.67;;
70320;SDS011;61127;55.826;37.046;2023-12-20T04:02:21;5.53;;;2.60;;
70320;SDS011;61127;55.826;37.046;2023-12-20T04:04:47;5.82;;;2.10;;
70320;SDS011;61127;55.826;37.046;2023-12-20T04:07:12;4.10;;;2.22;;
70320;SDS011;61127;55.826;37.046;2023-12-20T04:09:38;4.53;;;1.00;;
70320;SDS011;61127;55.826;37.046;2023-12-20T04:12:04;2.85;;;1.08;;
70320;SDS011;61127;55.826;37.046;2023-12-20T04:14:31;5.07;;;1.10;;
70320;SDS011;61127;55.826;37.046;2023-12-20T04:16:56;3.00;;;1.00;;
70320;SDS011;61127;55.826;37.046;2023-12-20T04:19:22;3.85;;;1.00;;
70320;SDS011;61127;55.826;37.046;2023-12-20T04:21:48;2.65;;;0.90;;
70320;SDS011;61127;55.826;37.046;2023-12-20T04:24:14;4.77;;;1.00;;
70320;SDS011;61127;55.826;37.046;2023-12-20T04:26:39;3.78;;;0.70;;
70320;SDS011;61127;55.826;37.046;2023-12-20T04:29:05;3.90;;;0.90;;
70320;SDS011;61127;55.826;37.046;2023-12-20T04:31:31;3.33;;;1.00;;
70320;SDS011;61127;55.826;37.046;2023-12-20T04:33:57;2.28;;;0.93;;
70320;SDS011;61127;55.826;37.046;2023-12-20T04:36:22;4.03;;;1.30;;
70320;SDS011;61127;55.826;37.046;2023-12-20T04:38:48;3.17;;;1.20;;
70320;SDS011;61127;55.826;37.046;2023-12-20T04:41:14;5.53;;;1.83;;
70320;SDS011;61127;55.826;37.046;2023-12-20T04:43:41;6.97;;;1.88;;
70320;SDS011;61127;55.826;37.046;2023-12-20T04:46:07;5.47;;;1.67;;
70320;SDS011;61127;55.826;37.046;2023-12-20T04:48:33;3.60;;;1.50;;
70320;SDS011;61127;55.826;37.046;2023-12-20T04:50:58;4.82;;;1.60;;
70320;SDS011;61127;55.826;37.046;2023-12-20T04:53:24;3.87;;;1.67;;
70320;SDS011;61127;55.826;37.046;2023-12-20T04:55:50;4.15;;;1.40;;
70320;SDS011;61127;55.826;37.046;2023-12-20T04:58:16;6.20;;;1.50;;
70320;SDS011;61127;55.826;37.046;2023-12-20T05:00:41;4.10;;;1.60;;
70320;SDS011;61127;55.826;37.046;2023-12-20T05:03:07;3.63;;;1.50;;
70320;SDS011;61127;55.826;37.046;2023-12-20T05:05:33;5.88;;;2.00;;
70320;SDS011;61127;55.826;37.046;2023-12-20T05:07:59;6.83;;;1.93;;
70320;SDS011;61127;55.826;37.046;2023-12-20T05:10:24;8.88;;;2.53;;
70320;SDS011;61127;55.826;37.046;2023-12-20T05:12:51;9.10;;;2.80;;
70320;SDS011;61127;55.826;37.046;2023-12-20T05:15:17;6.60;;;2.23;;
70320;SDS011;61127;55.826;37.046;2023-12-20T05:17:43;7.10;;;2.15;;
70320;SDS011;61127;55.826;37.046;2023-12-20T05:20:09;6.55;;;2.30;;
70320;SDS011;61127;55.826;37.046;2023-12-20T05:22:34;11.90;;;2.37;;
70320;SDS011;61127;55.826;37.046;2023-12-20T05:25:00;7.47;;;2.10;;
70320;SDS011;61127;55.826;37.046;2023-12-20T05:27:26;6.20;;;2.10;;
70320;SDS011;61127;55.826;37.046;2023-12-20T05:29:52;5.85;;;2.63;;
70320;SDS011;61127;55.826;37.046;2023-12-20T05:32:18;5.78;;;2.30;;
70320;SDS011;61127;55.826;37.046;2023-12-20T05:34:43;6.60;;;2.45;;
70320;SDS011;61127;55.826;37.046;2023-12-20T05:37:09;9.10;;;2.55;;
70320;SDS011;61127;55.826;37.046;2023-12-20T05:39:35;8.47;;;2.50;;
70320;SDS011;61127;55.826;37.046;2023-12-20T05:42:01;8.38;;;2.55;;
70320;SDS011;61127;55.826;37.046;2023-12-20T05:44:27;9.60;;;2.60;;
70320;SDS011;61127;55.826;37.046;2023-12-20T05:46:52;7.95;;;3.10;;
70320;SDS011;61127;55.826;37.046;2023-12-20T05:49:18;7.43;;;3.23;;
70320;SDS011;61127;55.826;37.046;2023-12-20T05:51:44;6.47;;;2.72;;
70320;SDS011;61127;55.826;37.046;2023-12-20T05:54:09;6.67;;;2.90;;
70320;SDS011;61127;55.826;37.046;2023-12-20T05:56:35;8.10;;;3.05;;
70320;SDS011;61127;55.826;37.046;2023-12-20T05:59:01;10.35;;;3.00;;
70320;SDS011;61127;55.826;37.046;2023-12-20T06:01:27;5.78;;;2.83;;
70320;SDS011;61127;55.826;37.046;2023-12-20T06:03:52;5.40;;;2.80;;
70320;SDS011;61127;55.826;37.046;2023-12-20T06:06:18;8.10;;;2.67;;
70320;SDS011;61127;55.826;37.046;2023-12-20T06:08:44;6.13;;;2.80;;
70320;SDS011;61127;55.826;37.046;2023-12-20T06:11:10;6.57;;;2.53;;
70320;SDS011;61127;55.826;37.046;2023-12-20T06:13:54;5.53;;;2.35;;
70320;SDS011;61127;55.826;37.046;2023-12-20T06:16:20;9.20;;;2.90;;
70320;SDS011;61127;55.826;37.046;2023-12-20T06:18:46;6.18;;;2.72;;
70320;SDS011;61127;55.826;37.046;2023-12-20T06:21:12;5.57;;;2.50;;
70320;SDS011;61127;55.826;37.046;2023-12-20T06:23:38;4.72;;;2.47;;
70320;SDS011;61127;55.826;37.046;2023-12-20T06:26:04;8.95;;;2.70;;
70320;SDS011;61127;55.826;37.046;2023-12-20T06:28:30;5.95;;;2.47;;
70320;SDS011;61127;55.826;37.046;2023-12-20T06:30:56;8.00;;;2.70;;
70320;SDS011;61127;55.826;37.046;2023-12-20T06:33:22;6.10;;;2.00;;
70320;SDS011;61127;55.826;37.046;2023-12-20T06:35:48;4.93;;;2.20;;
70320;SDS011;61127;55.826;37.046;2023-12-20T06:38:14;8.13;;;2.40;;
70320;SDS011;61127;55.826;37.046;2023-12-20T06:40:40;8.10;;;2.93;;
70320;SDS011;61127;55.826;37.046;2023-12-20T06:43:06;7.13;;;2.47;;
70320;SDS011;61127;55.826;37.046;2023-12-20T06:45:32;6.00;;;2.63;;
70320;SDS011;61127;55.826;37.046;2023-12-20T06:47:58;8.15;;;2.67;;
70320;SDS011;61127;55.826;37.046;2023-12-20T06:50:24;9.40;;;3.80;;
70320;SDS011;61127;55.826;37.046;2023-12-20T06:52:49;7.00;;;2.38;;
70320;SDS011;61127;55.826;37.046;2023-12-20T06:55:15;7.90;;;2.50;;
70320;SDS011;61127;55.826;37.046;2023-12-20T06:57:44;6.30;;;2.92;;
70320;SDS011;61127;55.826;37.046;2023-12-20T07:00:11;6.30;;;2.95;;
70320;SDS011;61127;55.826;37.046;2023-12-20T07:02:36;8.13;;;2.85;;
70320;SDS011;61127;55.826;37.046;2023-12-20T07:05:02;7.43;;;2.93;;
70320;SDS011;61127;55.826;37.046;2023-12-20T07:07:29;7.97;;;3.00;;
70320;SDS011;61127;55.826;37.046;2023-12-20T07:09:55;6.07;;;2.85;;
70320;SDS011;61127;55.826;37.046;2023-12-20T07:12:20;6.40;;;2.90;;
70320;SDS011;61127;55.826;37.046;2023-12-20T07:14:46;6.10;;;2.97;;
70320;SDS011;61127;55.826;37.046;2023-12-20T07:17:12;5.20;;;2.33;;
70320;SDS011;61127;55.826;37.046;2023-12-20T07:19:41;7.07;;;2.42;;
70320;SDS011;61127;55.826;37.046;2023-12-20T07:22:06;5.93;;;2.72;;
70320;SDS011;61127;55.826;37.046;2023-12-20T07:24:33;5.78;;;2.30;;
70320;SDS011;61127;55.826;37.046;2023-12-20T07:26:59;5.33;;;2.40;;
70320;SDS011;61127;55.826;37.046;2023-12-20T07:29:25;6.55;;;2.33;;
70320;SDS011;61127;55.826;37.046;2023-12-20T07:31:51;7.10;;;2.35;;
70320;SDS011;61127;55.826;37.046;2023-12-20T07:34:17;6.47;;;2.35;;
70320;SDS011;61127;55.826;37.046;2023-12-20T07:36:43;5.13;;;2.30;;
70320;SDS011;61127;55.826;37.046;2023-12-20T07:39:09;7.15;;;2.15;;
70320;SDS011;61127;55.826;37.046;2023-12-20T07:41:35;7.13;;;2.20;;
70320;SDS011;61127;55.826;37.046;2023-12-20T07:44:01;6.20;;;2.50;;
70320;SDS011;61127;55.826;37.046;2023-12-20T07:46:27;4.78;;;2.03;;
70320;SDS011;61127;55.826;37.046;2023-12-20T07:48:53;5.93;;;2.10;;
70320;SDS011;61127;55.826;37.046;2023-12-20T07:51:19;4.40;;;2.10;;
70320;SDS011;61127;55.826;37.046;2023-12-20T07:53:46;6.53;;;2.00;;
70320;SDS011;61127;55.826;37.046;2023-12-20T07:56:16;4.45;;;2.03;;
70320;SDS011;61127;55.826;37.046;2023-12-20T07:58:42;4.77;;;2.00;;
70320;SDS011;61127;55.826;37.046;2023-12-20T08:01:08;5.35;;;2.08;;
70320;SDS011;61127;55.826;37.046;2023-12-20T08:03:34;4.40;;;1.98;;
70320;SDS011;61127;55.826;37.046;2023-12-20T08:05:59;5.93;;;2.13;;
70320;SDS011;61127;55.826;37.046;2023-12-20T08:08:26;6.10;;;2.50;;
70320;SDS011;61127;55.826;37.046;2023-12-20T08:10:51;4.15;;;1.75;;
70320;SDS011;61127;55.826;37.046;2023-12-20T08:13:17;5.00;;;1.93;;
70320;SDS011;61127;55.826;37.046;2023-12-20T08:15:43;6.95;;;2.25;;
70320;SDS011;61127;55.826;37.046;2023-12-20T08:18:09;6.33;;;2.30;;
70320;SDS011;61127;55.826;37.046;2023-12-20T08:20:34;4.30;;;2.08;;
70320;SDS011;61127;55.826;37.046;2023-12-20T08:23:00;5.90;;;2.30;;
70320;SDS011;61127;55.826;37.046;2023-12-20T08:25:26;10.13;;;2.33;;
70320;SDS011;61127;55.826;37.046;2023-12-20T08:27:52;5.55;;;2.17;;
70320;SDS011;61127;55.826;37.046;2023-12-20T08:30:18;6.13;;;2.37;;
70320;SDS011;61127;55.826;37.046;2023-12-20T08:32:50;5.63;;;2.00;;
70320;SDS011;61127;55.826;37.046;2023-12-20T08:35:16;11.45;;;3.15;;
70320;SDS011;61127;55.826;37.046;2023-12-20T08:37:42;5.72;;;2.15;;
70320;SDS011;61127;55.826;37.046;2023-12-20T08:40:08;7.30;;;2.30;;
70320;SDS011;61127;55.826;37.046;2023-12-20T08:42:34;4.22;;;2.13;;
70320;SDS011;61127;55.826;37.046;2023-12-20T08:45:00;5.82;;;2.38;;
70320;SDS011;61127;55.826;37.046;2023-12-20T08:47:27;6.82;;;2.45;;
70320;SDS011;61127;55.826;37.046;2023-12-20T08:49:53;5.57;;;2.10;;
70320;SDS011;61127;55.826;37.046;2023-12-20T08:52:24;3.72;;;1.80;;
70320;SDS011;61127;55.826;37.046;2023-12-20T08:54:53;8.27;;;2.50;;
70320;SDS011;61127;55.826;37.046;2023-12-20T08:57:19;5.23;;;2.40;;
70320;SDS011;61127;55.826;37.046;2023-12-20T08:59:46;5.07;;;1.90;;
70320;SDS011;61127;55.826;37.046;2023-12-20T09:02:12;4.07;;;2.13;;
70320;SDS011;61127;55.826;37.046;2023-12-20T09:04:38;5.13;;;1.98;;
70320;SDS011;61127;55.826;37.046;2023-12-20T09:07:04;3.30;;;1.70;;
70320;SDS011;61127;55.826;37.046;2023-12-20T09:09:30;3.72;;;2.10;;
70320;SDS011;61127;55.826;37.046;2023-12-20T09:11:57;5.15;;;1.90;;
70320;SDS011;61127;55.826;37.046;2023-12-20T09:14:23;3.60;;;1.50;;
70320;SDS011;61127;55.826;37.046;2023-12-20T09:16:49;3.15;;;1.63;;
70320;SDS011;61127;55.826;37.046;2023-12-20T09:19:17;4.82;;;1.45;;
70320;SDS011;61127;55.826;37.046;2023-12-20T09:21:42;6.68;;;1.88;;
70320;SDS011;61127;55.826;37.046;2023-12-20T09:24:13;3.27;;;1.40;;
70320;SDS011;61127;55.826;37.046;2023-12-20T09:26:39;3.08;;;1.40;;
70320;SDS011;61127;55.826;37.046;2023-12-20T09:29:05;3.10;;;1.70;;
70320;SDS011;61127;55.826;37.046;2023-12-20T09:31:33;3.90;;;1.40;;
70320;SDS011;61127;55.826;37.046;2023-12-20T09:33:58;2.92;;;1.20;;
70320;SDS011;61127;55.826;37.046;2023-12-20T09:36:27;3.42;;;1.38;;
70320;SDS011;61127;55.826;37.046;2023-12-20T09:38:53;2.60;;;1.50;;
70320;SDS011;61127;55.826;37.046;2023-12-20T09:41:19;4.28;;;2.00;;
70320;SDS011;61127;55.826;37.046;2023-12-20T09:43:45;5.85;;;1.42;;
70320;SDS011;61127;55.826;37.046;2023-12-20T09:46:11;6.27;;;1.40;;
70320;SDS011;61127;55.826;37.046;2023-12-20T09:48:37;5.28;;;1.33;;
70320;SDS011;61127;55.826;37.046;2023-12-20T09:51:04;5.18;;;1.50;;
70320;SDS011;61127;55.826;37.046;2023-12-20T09:53:30;4.88;;;1.38;;
70320;SDS011;61127;55.826;37.046;2023-12-20T09:56:00;4.88;;;1.38;;
70320;SDS011;61127;55.826;37.046;2023-12-20T09:58:26;2.65;;;1.30;;
70320;SDS011;61127;55.826;37.046;2023-12-20T10:00:51;3.42;;;1.50;;
70320;SDS011;61127;55.826;37.046;2023-12-20T10:03:18;2.77;;;1.50;;
70320;SDS011;61127;55.826;37.046;2023-12-20T10:05:45;3.75;;;1.50;;
70320;SDS011;61127;55.826;37.046;2023-12-20T10:08:12;2.50;;;1.38;;
70320;SDS011;61127;55.826;37.046;2023-12-20T10:10:38;3.83;;;1.60;;
70320;SDS011;61127;55.826;37.046;2023-12-20T10:13:04;2.60;;;1.40;;
70320;SDS011;61127;55.826;37.046;2023-12-20T10:15:32;2.55;;;1.50;;
70320;SDS011;61127;55.826;37.046;2023-12-20T10:17:58;3.20;;;1.38;;
70320;SDS011;61127;55.826;37.046;2023-12-20T10:20:24;2.63;;;1.50;;
70320;SDS011;61127;55.826;37.046;2023-12-20T10:22:51;2.22;;;1.27;;
70320;SDS011;61127;55.826;37.046;2023-12-20T10:25:19;2.08;;;1.30;;
70320;SDS011;61127;55.826;37.046;2023-12-20T10:27:46;2.75;;;1.80;;
70320;SDS011;61127;55.826;37.046;2023-12-20T10:30:11;2.70;;;1.10;;
70320;SDS011;61127;55.826;37.046;2023-12-20T10:32:37;3.70;;;1.50;;
70320;SDS011;61127;55.826;37.046;2023-12-20T10:35:03;3.03;;;1.63;;
70320;SDS011;61127;55.826;37.046;2023-12-20T10:37:35;3.00;;;1.30;;
70320;SDS011;61127;55.826;37.046;2023-12-20T10:40:00;1.52;;;0.88;;
70320;SDS011;61127;55.826;37.046;2023-12-20T10:42:30;2.20;;;0.90;;
70320;SDS011;61127;55.826;37.046;2023-12-20T10:44:56;1.83;;;1.20;;
70320;SDS011;61127;55.826;37.046;2023-12-20T10:47:22;2.00;;;1.17;;
70320;SDS011;61127;55.826;37.046;2023-12-20T10:49:48;2.63;;;1.23;;
70320;SDS011;61127;55.826;37.046;2023-12-20T10:52:15;2.50;;;1.20;;
70320;SDS011;61127;55.826;37.046;2023-12-20T10:54:42;3.58;;;1.33;;
70320;SDS011;61127;55.826;37.046;2023-12-20T10:57:08;4.15;;;2.10;;
70320;SDS011;61127;55.826;37.046;2023-12-20T10:59:36;1.90;;;1.10;;
70320;SDS011;61127;55.826;37.046;2023-12-20T11:02:03;1.63;;;0.90;;
70320;SDS011;61127;55.826;37.046;2023-12-20T11:07:05;2.20;;;1.17;;
70320;SDS011;61127;55.826;37.046;2023-12-20T11:09:33;2.20;;;1.20;;
70320;SDS011;61127;55.826;37.046;2023-12-20T11:12:13;2.60;;;1.10;;
70320;SDS011;61127;55.826;37.046;2023-12-20T11:17:10;2.05;;;1.00;;
70320;SDS011;61127;55.826;37.046;2023-12-20T11:20:22;2.00;;;0.98;;
70320;SDS011;61127;55.826;37.046;2023-12-20T11:22:31;2.57;;;1.20;;
70320;SDS011;61127;55.826;37.046;2023-12-20T11:24:59;3.63;;;1.00;;
70320;SDS011;61127;55.826;37.046;2023-12-20T11:27:25;2.20;;;0.80;;
70320;SDS011;61127;55.826;37.046;2023-12-20T11:29:51;1.75;;;0.93;;
70320;SDS011;61127;55.826;37.046;2023-12-20T11:34:54;1.67;;;0.90;;
70320;SDS011;61127;55.826;37.046;2023-12-20T11:37:19;2.72;;;0.90;;
70320;SDS011;61127;55.826;37.046;2023-12-20T11:39:45;1.25;;;0.70;;
70320;SDS011;61127;55.826;37.046;2023-12-20T11:42:19;3.70;;;0.97;;
70320;SDS011;61127;55.826;37.046;2023-12-20T11:44:46;2.83;;;0.80;;
70320;SDS011;61127;55.826;37.046;2023-12-20T11:47:12;4.30;;;1.27;;
70320;SDS011;61127;55.826;37.046;2023-12-20T11:49:39;2.22;;;0.85;;
70320;SDS011;61127;55.826;37.046;2023-12-20T11:52:05;2.03;;;0.97;;
70320;SDS011;61127;55.826;37.046;2023-12-20T11:54:31;1.95;;;0.75;;
70320;SDS011;61127;55.826;37.046;2023-12-20T11:56:57;1.80;;;0.60;;
70320;SDS011;61127;55.826;37.046;2023-12-20T11:59:23;1.90;;;0.90;;
70320;SDS011;61127;55.826;37.046;2023-12-20T12:01:49;2.05;;;0.60;;
70320;SDS011;61127;55.826;37.046;2023-12-20T12:04:18;1.67;;;0.65;;
70320;SDS011;61127;55.826;37.046;2023-12-20T12:06:44;1.20;;;0.60;;
70320;SDS011;61127;55.826;37.046;2023-12-20T12:09:10;1.90;;;0.80;;
70320;SDS011;61127;55.826;37.046;2023-12-20T12:11:37;0.90;;;0.52;;
70320;SDS011;61127;55.826;37.046;2023-12-20T12:14:03;2.15;;;0.60;;
70320;SDS011;61127;55.826;37.046;2023-12-20T12:16:29;3.30;;;0.70;;
70320;SDS011;61127;55.826;37.046;2023-12-20T12:18:56;1.60;;;0.70;;
70320;SDS011;61127;55.826;37.046;2023-12-20T12:21:22;2.67;;;0.80;;
70320;SDS011;61127;55.826;37.046;2023-12-20T12:23:48;3.30;;;0.80;;
70320;SDS011;61127;55.826;37.046;2023-12-20T12:26:14;1.10;;;0.65;;
70320;SDS011;61127;55.826;37.046;2023-12-20T12:28:40;1.93;;;0.60;;
70320;SDS011;61127;55.826;37.046;2023-12-20T12:31:06;2.58;;;0.60;;
70320;SDS011;61127;55.826;37.046;2023-12-20T12:33:32;2.67;;;0.70;;
70320;SDS011;61127;55.826;37.046;2023-12-20T12:35:59;2.10;;;0.50;;
70320;SDS011;61127;55.826;37.046;2023-12-20T12:38:25;0.90;;;0.50;;
70320;SDS011;61127;55.826;37.046;2023-12-20T12:40:51;1.55;;;0.60;;
70320;SDS011;61127;55.826;37.046;2023-12-20T12:43:19;3.70;;;0.73;;
70320;SDS011;61127;55.826;37.046;2023-12-20T12:45:44;0.88;;;0.43;;
70320;SDS011;61127;55.826;37.046;2023-12-20T12:48:10;3.43;;;0.70;;
70320;SDS011;61127;55.826;37.046;2023-12-20T12:50:36;1.02;;;0.52;;
70320;SDS011;61127;55.826;37.046;2023-12-20T12:53:02;3.17;;;0.63;;
70320;SDS011;61127;55.826;37.046;2023-12-20T12:55:28;1.33;;;0.50;;
70320;SDS011;61127;55.826;37.046;2023-12-20T12:57:54;1.50;;;0.60;;
70320;SDS011;61127;55.826;37.046;2023-12-20T13:00:20;2.27;;;0.57;;
70320;SDS011;61127;55.826;37.046;2023-12-20T13:02:45;4.72;;;0.68;;
70320;SDS011;61127;55.826;37.046;2023-12-20T13:05:13;1.67;;;0.50;;
70320;SDS011;61127;55.826;37.046;2023-12-20T13:07:39;2.93;;;0.50;;
70320;SDS011;61127;55.826;37.046;2023-12-20T13:10:05;1.52;;;0.60;;
70320;SDS011;61127;55.826;37.046;2023-12-20T13:12:31;1.30;;;0.40;;
70320;SDS011;61127;55.826;37.046;2023-12-20T13:14:57;7.30;;;1.10;;
70320;SDS011;61127;55.826;37.046;2023-12-20T13:17:23;2.50;;;0.52;;
70320;SDS011;61127;55.826;37.046;2023-12-20T13:19:49;1.15;;;0.45;;
70320;SDS011;61127;55.826;37.046;2023-12-20T13:22:15;1.27;;;0.50;;
70320;SDS011;61127;55.826;37.046;2023-12-20T13:24:41;0.98;;;0.40;;
70320;SDS011;61127;55.826;37.046;2023-12-20T13:27:10;2.28;;;0.60;;
70320;SDS011;61127;55.826;37.046;2023-12-20T13:29:35;1.35;;;0.60;;
70320;SDS011;61127;55.826;37.046;2023-12-20T13:32:01;1.98;;;0.70;;
70320;SDS011;61127;55.826;37.046;2023-12-20T13:34:29;5.23;;;0.90;;
70320;SDS011;61127;55.826;37.046;2023-12-20T13:36:55;2.30;;;0.70;;
70320;SDS011;61127;55.826;37.046;2023-12-20T13:39:22;1.13;;;0.77;;
70320;SDS011;61127;55.826;37.046;2023-12-20T13:41:48;1.70;;;0.60;;
70320;SDS011;61127;55.826;37.046;2023-12-20T13:44:13;2.93;;;0.47;;
70320;SDS011;61127;55.826;37.046;2023-12-20T13:46:40;1.98;;;0.60;;
70320;SDS011;61127;55.826;37.046;2023-12-20T13:49:06;0.98;;;0.50;;
70320;SDS011;61127;55.826;37.046;2023-12-20T13:51:32;1.55;;;0.70;;
70320;SDS011;61127;55.826;37.046;2023-12-20T13:53:58;1.77;;;0.87;;
70320;SDS011;61127;55.826;37.046;2023-12-20T13:56:25;1.65;;;0.82;;
70320;SDS011;61127;55.826;37.046;2023-12-20T13:58:50;1.30;;;0.68;;
70320;SDS011;61127;55.826;37.046;2023-12-20T14:01:17;1.17;;;0.70;;
70320;SDS011;61127;55.826;37.046;2023-12-20T14:03:43;1.50;;;0.60;;
70320;SDS011;61127;55.826;37.046;2023-12-20T14:06:09;1.67;;;0.80;;
70320;SDS011;61127;55.826;37.046;2023-12-20T14:08:35;3.70;;;0.80;;
70320;SDS011;61127;55.826;37.046;2023-12-20T14:11:01;1.30;;;0.75;;
70320;SDS011;61127;55.826;37.046;2023-12-20T14:13:27;4.70;;;1.03;;
70320;SDS011;61127;55.826;37.046;2023-12-20T14:15:53;2.28;;;0.90;;
70320;SDS011;61127;55.826;37.046;2023-12-20T14:18:20;2.63;;;0.90;;
70320;SDS011;61127;55.826;37.046;2023-12-20T14:20:45;2.67;;;1.10;;
70320;SDS011;61127;55.826;37.046;2023-12-20T14:23:12;3.08;;;1.30;;
70320;SDS011;61127;55.826;37.046;2023-12-20T14:25:41;2.30;;;1.30;;
70320;SDS011;61127;55.826;37.046;2023-12-20T14:28:07;3.90;;;1.70;;
70320;SDS011;61127;55.826;37.046;2023-12-20T14:30:32;4.93;;;1.40;;
70320;SDS011;61127;55.826;37.046;2023-12-20T14:32:59;1.90;;;1.30;;
70320;SDS011;61127;55.826;37.046;2023-12-20T14:35:24;2.45;;;1.10;;